createdAt,value
2018-04-10T00:02:10.865Z,55.60
2018-04-10T00:04:39.079Z,55.60
2018-04-10T00:07:07.349Z,55.70
2018-04-10T00:09:36.341Z,56.00
2018-04-10T00:12:04.563Z,55.90
2018-04-10T00:14:33.558Z,56.70
2018-04-10T00:17:01.812Z,56.00
2018-04-10T00:19:30.078Z,55.90
2018-04-10T00:21:58.337Z,56.10
2018-04-10T00:24:26.567Z,56.20
2018-04-10T00:26:54.840Z,56.20
2018-04-10T00:29:23.088Z,56.20
2018-04-10T00:31:51.321Z,56.30
2018-04-10T00:34:19.552Z,56.30
2018-04-10T00:36:47.830Z,56.30
2018-04-10T00:39:16.065Z,56.30
2018-04-10T00:41:44.297Z,56.30
2018-04-10T00:44:13.311Z,56.50
2018-04-10T00:46:41.564Z,56.30
2018-04-10T00:49:09.823Z,56.30
2018-04-10T00:51:38.089Z,56.40
2018-04-10T00:54:06.346Z,57.10
2018-04-10T00:56:34.572Z,56.40
2018-04-10T00:59:03.642Z,56.40
2018-04-10T01:01:31.867Z,56.30
2018-04-10T01:04:00.116Z,56.30
2018-04-10T01:06:29.124Z,56.30
2018-04-10T01:08:58.136Z,56.20
2018-04-10T01:11:26.378Z,56.10
2018-04-10T01:13:54.602Z,56.20
2018-04-10T01:16:22.859Z,56.20
2018-04-10T01:18:51.088Z,56.20
2018-04-10T01:21:19.331Z,56.20
2018-04-10T01:23:47.600Z,56.30
2018-04-10T01:26:15.836Z,56.30
2018-04-10T01:28:44.835Z,56.90
2018-04-10T01:31:13.846Z,56.40
2018-04-10T01:33:42.836Z,56.50
2018-04-10T01:36:11.844Z,56.50
2018-04-10T01:38:40.104Z,56.50
2018-04-10T01:41:09.117Z,56.60
2018-04-10T01:43:37.405Z,56.50
2018-04-10T01:46:05.657Z,56.60
2018-04-10T01:48:33.922Z,56.60
2018-04-10T01:51:02.919Z,56.60
2018-04-10T01:53:31.919Z,56.80
2018-04-10T01:56:00.206Z,56.70
2018-04-10T01:58:28.435Z,56.80
2018-04-10T02:00:56.693Z,56.90
2018-04-10T02:03:24.984Z,56.90
2018-04-10T02:05:53.192Z,56.90
2018-04-10T02:08:22.187Z,57.00
2018-04-10T02:10:51.215Z,57.10
2018-04-10T02:13:19.461Z,57.10
2018-04-10T02:15:48.476Z,57.20
2018-04-10T02:18:16.698Z,57.20
2018-04-10T02:20:44.954Z,57.30
2018-04-10T02:23:13.199Z,57.30
2018-04-10T02:25:41.527Z,57.30
2018-04-10T02:28:09.783Z,57.30
2018-04-10T02:30:38.076Z,57.50
2018-04-10T02:33:06.307Z,57.60
2018-04-10T02:35:34.536Z,57.60
2018-04-10T02:38:02.798Z,57.60
2018-04-10T02:40:31.031Z,57.70
2018-04-10T02:42:59.296Z,57.60
2018-04-10T02:45:28.337Z,57.80
2018-04-10T02:47:56.560Z,57.70
2018-04-10T02:50:25.601Z,57.90
2018-04-10T02:52:53.882Z,57.90
2018-04-10T02:55:22.117Z,58.10
2018-04-10T02:57:50.357Z,58.10
2018-04-10T03:00:18.614Z,58.20
2018-04-10T03:02:46.864Z,58.20
2018-04-10T03:05:15.087Z,58.30
2018-04-10T03:07:43.398Z,58.40
2018-04-10T03:10:12.385Z,58.60
2018-04-10T03:12:41.408Z,58.60
2018-04-10T03:15:09.663Z,58.60
2018-04-10T03:17:38.681Z,58.80
2018-04-10T03:20:06.932Z,58.70
2018-04-10T03:22:35.160Z,58.70
2018-04-10T03:25:03.413Z,58.70
2018-04-10T03:27:31.687Z,58.70
2018-04-10T03:29:59.953Z,58.70
2018-04-10T03:32:28.216Z,58.80
2018-04-10T03:34:57.212Z,58.80
2018-04-10T03:37:25.446Z,58.80
2018-04-10T03:39:53.693Z,58.80
2018-04-10T03:42:21.947Z,58.80
2018-04-10T03:44:50.197Z,58.80
2018-04-10T03:47:19.210Z,58.80
2018-04-10T03:49:47.484Z,58.70
2018-04-10T03:52:15.713Z,58.80
2018-04-10T03:54:43.953Z,58.90
2018-04-10T03:57:12.202Z,58.80
2018-04-10T03:59:41.208Z,59.20
2018-04-10T04:02:09.464Z,59.80
2018-04-10T04:04:38.473Z,59.20
2018-04-10T04:07:07.507Z,59.20
2018-04-10T04:09:35.793Z,59.10
2018-04-10T04:12:04.035Z,59.20
2018-04-10T04:14:32.283Z,59.20
2018-04-10T04:17:13.261Z,59.40
2018-04-10T04:19:54.106Z,59.50
2018-04-10T04:22:34.279Z,59.40
2018-04-10T04:25:03.305Z,59.50
2018-04-10T04:27:31.591Z,59.40
2018-04-10T04:29:59.814Z,59.50
2018-04-10T04:32:28.083Z,59.50
2018-04-10T04:34:56.338Z,59.60
2018-04-10T04:37:24.587Z,59.60
2018-04-10T04:39:52.821Z,59.60
2018-04-10T04:42:21.095Z,59.70
2018-04-10T04:44:49.364Z,59.70
2018-04-10T04:47:17.621Z,59.70
2018-04-10T04:49:45.879Z,59.70
2018-04-10T04:52:14.149Z,59.80
2018-04-10T04:54:42.382Z,59.80
2018-04-10T04:57:10.598Z,59.70
2018-04-10T04:59:38.875Z,59.70
2018-04-10T05:02:07.858Z,59.80
2018-04-10T05:04:36.111Z,59.80
2018-04-10T05:07:04.379Z,59.80
2018-04-10T05:09:32.654Z,59.90
2018-04-10T05:12:00.893Z,59.90
2018-04-10T05:14:29.114Z,59.90
2018-04-10T05:16:58.123Z,59.90
2018-04-10T05:19:27.147Z,59.90
2018-04-10T05:21:55.430Z,59.80
2018-04-10T05:24:23.681Z,59.90
2018-04-10T05:26:53.811Z,59.90
2018-04-10T05:29:22.051Z,60.30
2018-04-10T05:31:51.067Z,60.00
2018-04-10T05:34:19.421Z,60.00
2018-04-10T05:36:47.663Z,60.00
2018-04-10T05:39:15.939Z,60.00
2018-04-10T05:41:44.172Z,59.90
2018-04-10T05:44:12.439Z,59.90
2018-04-10T05:46:41.443Z,59.80
2018-04-10T05:49:09.693Z,59.80
2018-04-10T05:51:37.930Z,59.80
2018-04-10T05:54:06.190Z,59.90
2018-04-10T05:56:34.462Z,59.80
2018-04-10T05:59:02.711Z,59.80
2018-04-10T06:01:31.740Z,59.70
2018-04-10T06:04:00.071Z,59.70
2018-04-10T06:06:28.291Z,59.60
2018-04-10T06:08:56.645Z,59.60
2018-04-10T06:11:25.687Z,59.40
2018-04-10T06:13:53.934Z,59.40
2018-04-10T06:16:22.181Z,59.50
2018-04-10T06:18:51.171Z,59.30
2018-04-10T06:21:20.204Z,59.40
2018-04-10T06:23:48.446Z,59.40
2018-04-10T06:26:17.464Z,59.40
2018-04-10T06:28:45.718Z,59.30
2018-04-10T06:31:14.710Z,59.30
2018-04-10T06:33:42.976Z,59.20
2018-04-10T06:36:11.238Z,59.20
2018-04-10T06:38:39.483Z,59.20
2018-04-10T06:41:07.745Z,59.20
2018-04-10T06:43:36.032Z,59.10
2018-04-10T06:46:04.346Z,59.10
2018-04-10T06:48:32.618Z,59.50
2018-04-10T06:51:00.890Z,59.50
2018-04-10T06:53:29.138Z,59.50
2018-04-10T06:55:57.408Z,59.40
2018-04-10T06:58:25.725Z,59.30
2018-04-10T07:00:53.958Z,59.10
2018-04-10T07:03:22.204Z,59.00
2018-04-10T07:05:51.217Z,58.80
2018-04-10T07:08:19.476Z,58.80
2018-04-10T07:10:47.747Z,58.70
2018-04-10T07:13:16.065Z,58.80
2018-04-10T07:15:44.298Z,58.80
2018-04-10T07:18:12.522Z,58.90
2018-04-10T07:20:40.823Z,59.00
2018-04-10T07:23:09.055Z,58.80
2018-04-10T07:25:37.346Z,58.70
2018-04-10T07:28:05.602Z,58.70
2018-04-10T07:30:34.596Z,58.60
2018-04-10T07:33:03.844Z,58.60
2018-04-10T07:35:32.132Z,58.60
2018-04-10T07:38:00.390Z,58.50
2018-04-10T07:40:28.612Z,58.50
2018-04-10T07:42:57.626Z,58.60
2018-04-10T07:45:25.902Z,58.60
2018-04-10T07:47:54.159Z,58.30
2018-04-10T07:50:23.184Z,58.30
2018-04-10T07:52:51.418Z,58.20
2018-04-10T07:55:19.664Z,58.30
2018-04-10T07:57:47.976Z,58.20
2018-04-10T08:00:16.976Z,58.10
2018-04-10T08:02:46.001Z,58.00
2018-04-10T08:05:14.237Z,58.00
2018-04-10T08:07:42.511Z,58.10
2018-04-10T08:10:11.487Z,58.00
2018-04-10T08:12:39.716Z,57.90
2018-04-10T08:15:08.082Z,58.00
2018-04-10T08:17:36.316Z,57.80
2018-04-10T08:20:04.553Z,57.80
2018-04-10T08:22:32.826Z,57.90
2018-04-10T08:25:01.078Z,57.80
2018-04-10T08:27:30.090Z,57.60
2018-04-10T08:29:58.345Z,57.60
2018-04-10T08:32:27.342Z,57.50
2018-04-10T08:34:56.357Z,57.50
2018-04-10T08:37:24.605Z,57.40
2018-04-10T08:39:53.624Z,57.30
2018-04-10T08:42:21.852Z,57.20
2018-04-10T08:44:50.169Z,57.30
2018-04-10T08:47:18.392Z,57.10
2018-04-10T08:49:47.412Z,57.00
2018-04-10T08:52:15.846Z,57.00
2018-04-10T08:54:44.916Z,56.90
2018-04-10T08:57:13.168Z,57.10
2018-04-10T08:59:42.167Z,57.30
2018-04-10T09:02:11.218Z,57.30
2018-04-10T09:04:39.441Z,57.30
2018-04-10T09:07:08.956Z,57.50
2018-04-10T09:09:37.200Z,57.30
2018-04-10T09:12:05.561Z,57.50
2018-04-10T09:14:33.784Z,57.60
2018-04-10T09:17:02.829Z,57.30
2018-04-10T09:19:31.074Z,57.20
2018-04-10T09:21:59.305Z,57.20
2018-04-10T09:24:27.571Z,57.10
2018-04-10T09:26:55.829Z,57.00
2018-04-10T09:29:24.059Z,57.00
2018-04-10T09:31:53.076Z,57.00
2018-04-10T09:34:21.338Z,57.00
2018-04-10T09:36:49.651Z,57.00
2018-04-10T09:39:17.888Z,56.90
2018-04-10T09:41:46.128Z,56.70
2018-04-10T09:44:14.384Z,56.80
2018-04-10T09:46:42.695Z,56.70
2018-04-10T09:49:10.909Z,56.30
2018-04-10T09:51:39.176Z,56.00
2018-04-10T09:54:07.451Z,55.80
2018-04-10T09:56:36.482Z,55.70
2018-04-10T09:59:04.710Z,55.70
2018-04-10T10:01:33.716Z,55.60
2018-04-10T10:04:02.055Z,56.30
2018-04-10T10:06:31.078Z,55.20
2018-04-10T10:09:00.095Z,54.40
2018-04-10T10:11:28.363Z,54.40
2018-04-10T10:13:56.625Z,54.20
2018-04-10T10:16:24.880Z,53.90
2018-04-10T10:18:53.125Z,53.80
2018-04-10T10:21:21.364Z,53.70
2018-04-10T10:23:49.615Z,53.40
2018-04-10T10:26:18.665Z,53.30
2018-04-10T10:28:46.892Z,53.20
2018-04-10T10:31:15.900Z,53.20
2018-04-10T10:33:44.168Z,53.10
2018-04-10T10:36:13.192Z,53.10
2018-04-10T10:38:41.436Z,53.10
2018-04-10T10:41:10.448Z,53.00
2018-04-10T10:43:38.746Z,52.90
2018-04-10T10:46:06.973Z,52.70
2018-04-10T10:48:35.225Z,52.20
2018-04-10T10:51:03.488Z,52.30
2018-04-10T10:53:31.752Z,52.20
2018-04-10T10:55:59.984Z,52.20
2018-04-10T10:58:29.018Z,52.10
2018-04-10T11:00:57.288Z,52.70
2018-04-10T11:03:26.262Z,51.90
2018-04-10T11:05:55.277Z,52.00
2018-04-10T11:08:23.523Z,52.00
2018-04-10T11:10:52.573Z,51.90
2018-04-10T11:13:20.813Z,51.80
2018-04-10T11:15:49.044Z,51.60
2018-04-10T11:18:17.335Z,51.40
2018-04-10T11:20:45.532Z,51.50
2018-04-10T11:23:13.771Z,51.70
2018-04-10T11:25:42.012Z,51.50
2018-04-10T11:28:10.340Z,51.80
2018-04-10T11:30:38.541Z,51.50
2018-04-10T11:33:06.814Z,51.40
2018-04-10T11:35:35.846Z,51.00
2018-04-10T11:38:04.076Z,51.00
2018-04-10T11:40:33.093Z,50.70
2018-04-10T11:43:01.374Z,50.60
2018-04-10T11:45:30.393Z,50.00
2018-04-10T11:47:58.620Z,50.00
2018-04-10T11:50:27.659Z,50.40
2018-04-10T11:52:55.917Z,50.30
2018-04-10T11:55:24.176Z,50.30
2018-04-10T11:57:52.405Z,50.00
2018-04-10T12:00:20.643Z,49.80
2018-04-10T12:02:48.880Z,49.70
2018-04-10T12:05:17.954Z,49.40
2018-04-10T12:07:46.207Z,49.30
2018-04-10T12:10:14.467Z,49.40
2018-04-10T12:12:42.747Z,49.20
2018-04-10T12:15:10.968Z,49.00
2018-04-10T12:17:39.235Z,48.90
2018-04-10T12:20:07.459Z,48.90
2018-04-10T12:22:35.697Z,48.40
2018-04-10T12:25:04.023Z,48.20
2018-04-10T12:27:32.275Z,48.20
2018-04-10T12:30:01.273Z,47.90
2018-04-10T12:32:29.495Z,47.90
2018-04-10T12:34:58.514Z,47.60
2018-04-10T12:37:26.774Z,47.60
2018-04-10T12:39:54.985Z,47.10
2018-04-10T12:42:24.020Z,46.40
2018-04-10T12:44:52.278Z,46.30
2018-04-10T12:47:20.536Z,46.30
2018-04-10T12:49:49.522Z,45.30
2018-04-10T12:52:18.542Z,45.10
2018-04-10T12:54:46.797Z,45.00
2018-04-10T12:57:15.069Z,44.40
2018-04-10T12:59:43.368Z,44.40
2018-04-10T13:02:11.630Z,44.60
2018-04-10T13:04:40.627Z,44.70
2018-04-10T13:07:08.876Z,44.60
2018-04-10T13:09:37.098Z,44.50
2018-04-10T13:12:05.430Z,44.40
2018-04-10T13:14:33.655Z,43.80
2018-04-10T13:17:01.933Z,44.30
2018-04-10T13:19:30.186Z,44.70
2018-04-10T13:21:59.178Z,44.20
2018-04-10T13:24:28.198Z,44.60
2018-04-10T13:26:56.428Z,44.60
2018-04-10T13:29:24.681Z,44.70
2018-04-10T13:31:52.935Z,44.40
2018-04-10T13:34:21.176Z,44.40
2018-04-10T13:36:50.196Z,45.50
2018-04-10T13:39:18.447Z,45.50
2018-04-10T13:41:46.711Z,46.20
2018-04-10T13:44:15.719Z,47.10
2018-04-10T13:46:43.961Z,47.00
2018-04-10T13:49:12.253Z,47.70
2018-04-10T13:51:40.503Z,48.00
2018-04-10T13:54:08.760Z,48.30
2018-04-10T13:56:37.003Z,48.50
2018-04-10T13:59:06.017Z,48.60
2018-04-10T14:01:34.240Z,48.60
2018-04-10T14:04:02.483Z,48.70
2018-04-10T14:06:30.718Z,48.70
2018-04-10T14:08:59.727Z,48.50
2018-04-10T14:11:27.989Z,48.50
2018-04-10T14:13:56.255Z,48.40
2018-04-10T14:16:25.280Z,48.50
2018-04-10T14:18:53.524Z,48.50
2018-04-10T14:21:22.552Z,48.10
2018-04-10T14:23:50.793Z,48.00
2018-04-10T14:26:19.033Z,47.90
2018-04-10T14:28:47.288Z,48.60
2018-04-10T14:31:15.589Z,47.90
2018-04-10T14:33:43.945Z,47.50
2018-04-10T14:36:12.202Z,47.30
2018-04-10T14:38:41.010Z,47.10
2018-04-10T14:41:10.139Z,47.20
2018-04-10T14:43:38.378Z,47.40
2018-04-10T14:46:06.625Z,47.30
2018-04-10T14:48:35.645Z,46.60
2018-04-10T14:51:03.883Z,46.60
2018-04-10T14:53:32.131Z,44.80
2018-04-10T14:56:00.546Z,44.70
2018-04-10T14:58:29.403Z,43.80
2018-04-10T15:00:57.654Z,42.60
2018-04-10T15:03:25.892Z,42.80
2018-04-10T15:05:54.916Z,42.70
2018-04-10T15:08:23.188Z,42.60
2018-04-10T15:10:51.538Z,42.40
2018-04-10T15:13:19.767Z,42.20
2018-04-10T15:15:48.102Z,42.00
2018-04-10T15:18:16.370Z,42.00
2018-04-10T15:20:45.377Z,41.90
2018-04-10T15:23:13.621Z,41.80
2018-04-10T15:25:41.910Z,41.90
2018-04-10T15:28:10.931Z,42.20
2018-04-10T15:30:39.181Z,41.90
2018-04-10T15:33:08.203Z,42.30
2018-04-10T15:35:36.460Z,42.20
2018-04-10T15:38:05.490Z,42.20
2018-04-10T15:40:33.817Z,42.10
2018-04-10T15:43:02.068Z,42.50
2018-04-10T15:45:30.289Z,42.60
2018-04-10T15:47:59.306Z,42.50
2018-04-10T15:50:27.572Z,42.50
2018-04-10T15:52:55.808Z,42.60
2018-04-10T15:55:24.089Z,42.60
2018-04-10T15:57:52.332Z,42.60
2018-04-10T16:00:21.508Z,42.60
2018-04-10T16:02:49.748Z,42.10
2018-04-10T16:05:18.739Z,42.50
2018-04-10T16:07:47.090Z,42.30
2018-04-10T16:10:15.320Z,42.50
2018-04-10T16:12:43.580Z,42.50
2018-04-10T16:15:12.606Z,42.60
2018-04-10T16:17:40.848Z,42.60
2018-04-10T16:20:09.868Z,42.20
2018-04-10T16:22:38.116Z,42.20
2018-04-10T16:25:07.124Z,42.40
2018-04-10T16:27:35.384Z,42.30
2018-04-10T16:30:04.432Z,42.10
2018-04-10T16:32:32.662Z,42.10
2018-04-10T16:35:01.708Z,42.60
2018-04-10T16:37:29.935Z,42.50
2018-04-10T16:39:58.254Z,42.70
2018-04-10T16:42:26.494Z,42.80
2018-04-10T16:44:55.489Z,42.70
2018-04-10T16:47:23.732Z,42.60
2018-04-10T16:49:51.984Z,42.70
2018-04-10T16:52:20.211Z,42.70
2018-04-10T16:54:49.256Z,42.90
2018-04-10T16:57:17.521Z,42.80
2018-04-10T16:59:45.776Z,42.80
2018-04-10T17:02:14.008Z,43.00
2018-04-10T17:04:42.322Z,43.10
2018-04-10T17:07:10.577Z,43.10
2018-04-10T17:09:38.797Z,43.20
2018-04-10T17:12:07.044Z,43.20
2018-04-10T17:14:35.397Z,43.10
2018-04-10T17:17:03.614Z,41.80
2018-04-10T17:19:31.839Z,41.70
2018-04-10T17:22:00.112Z,40.60
2018-04-10T17:24:28.344Z,40.50
2018-04-10T17:26:56.576Z,38.90
2018-04-10T17:29:24.831Z,39.10
2018-04-10T17:31:53.076Z,38.40
2018-04-10T17:34:21.319Z,38.20
2018-04-10T17:36:50.347Z,37.40
2018-04-10T17:39:18.689Z,37.30
2018-04-10T17:41:46.923Z,37.30
2018-04-10T17:44:15.163Z,35.60
2018-04-10T17:46:45.143Z,35.60
2018-04-10T17:49:13.392Z,35.60
2018-04-10T17:51:41.665Z,36.30
2018-04-10T17:54:09.901Z,36.30
2018-04-10T17:56:38.123Z,36.10
2018-04-10T17:59:06.369Z,36.40
2018-04-10T18:01:34.592Z,36.70
2018-04-10T18:04:02.848Z,36.40
2018-04-10T18:06:31.080Z,36.40
2018-04-10T18:09:00.089Z,38.30
2018-04-10T18:11:28.342Z,38.30
2018-04-10T18:13:57.375Z,45.90
2018-04-10T18:16:25.696Z,45.90
2018-04-10T18:18:53.936Z,46.90
2018-04-10T18:21:22.186Z,47.70
2018-04-10T18:23:50.429Z,48.30
2018-04-10T18:26:18.699Z,48.40
2018-04-10T18:28:46.930Z,49.20
2018-04-10T18:31:15.155Z,49.50
2018-04-10T18:33:43.407Z,49.80
2018-04-10T18:36:11.681Z,50.00
2018-04-10T18:38:39.869Z,50.10
2018-04-10T18:41:08.120Z,50.40
2018-04-10T18:43:36.387Z,50.60
2018-04-10T18:46:05.367Z,51.00
2018-04-10T18:48:33.612Z,51.00
2018-04-10T18:51:02.624Z,51.10
2018-04-10T18:53:30.847Z,51.10
2018-04-10T18:55:59.109Z,51.30
2018-04-10T18:58:27.344Z,51.40
2018-04-10T19:00:55.595Z,51.50
2018-04-10T19:03:23.853Z,51.60
2018-04-10T19:05:52.079Z,51.70
2018-04-10T19:08:20.320Z,52.00
2018-04-10T19:10:48.567Z,52.00
2018-04-10T19:13:16.823Z,52.10
2018-04-10T19:15:45.061Z,52.50
2018-04-10T19:18:14.080Z,52.80
2018-04-10T19:20:42.377Z,52.70
2018-04-10T19:23:10.637Z,52.80
2018-04-10T19:25:38.863Z,52.80
2018-04-10T19:28:07.096Z,53.00
2018-04-10T19:30:35.387Z,53.20
2018-04-10T19:33:03.688Z,53.40
2018-04-10T19:35:31.944Z,53.60
2018-04-10T19:38:00.176Z,53.60
2018-04-10T19:40:29.204Z,53.80
2018-04-10T19:42:57.464Z,53.70
2018-04-10T19:45:25.701Z,53.70
2018-04-10T19:47:53.958Z,53.70
2018-04-10T19:50:22.189Z,53.80
2018-04-10T19:52:50.444Z,53.80
2018-04-10T19:55:18.675Z,53.90
2018-04-10T19:57:46.926Z,54.20
2018-04-10T20:00:15.162Z,54.20
2018-04-10T20:02:43.430Z,54.30
2018-04-10T20:05:11.679Z,54.40
2018-04-10T20:07:39.925Z,54.50
2018-04-10T20:10:08.181Z,54.70
2018-04-10T20:12:37.179Z,55.00
2018-04-10T20:15:06.195Z,55.40
2018-04-10T20:17:34.460Z,55.30
2018-04-10T20:20:02.688Z,55.40
2018-04-10T20:22:30.915Z,55.40
2018-04-10T20:24:59.173Z,55.20
2018-04-10T20:27:28.219Z,55.30
2018-04-10T20:29:56.446Z,55.20
2018-04-10T20:32:25.444Z,55.50
2018-04-10T20:34:54.483Z,55.60
2018-04-10T20:37:22.719Z,55.50
2018-04-10T20:39:51.049Z,55.80
2018-04-10T20:42:19.353Z,55.90
2018-04-10T20:44:47.662Z,56.00
2018-04-10T20:47:15.930Z,56.40
2018-04-10T20:49:44.982Z,57.00
2018-04-10T20:52:13.274Z,56.30
2018-04-10T20:54:41.525Z,56.30
2018-04-10T20:57:09.775Z,56.40
2018-04-10T20:59:38.103Z,56.40
2018-04-10T21:02:06.336Z,56.40
2018-04-10T21:04:34.569Z,56.80
2018-04-10T21:07:03.614Z,56.90
2018-04-10T21:09:31.848Z,56.80
2018-04-10T21:12:00.093Z,57.00
2018-04-10T21:14:28.370Z,57.00
2018-04-10T21:16:56.664Z,56.90
2018-04-10T21:19:25.652Z,57.00
2018-04-10T21:21:53.995Z,57.00
2018-04-10T21:24:22.243Z,57.20
2018-04-10T21:26:50.670Z,57.20
2018-04-10T21:29:18.887Z,57.20
2018-04-10T21:31:47.137Z,57.20
2018-04-10T21:34:15.398Z,57.30
2018-04-10T21:36:43.774Z,57.00
2018-04-10T21:39:12.831Z,57.70
2018-04-10T21:41:41.076Z,57.70
2018-04-10T21:44:09.344Z,57.90
2018-04-10T21:46:37.612Z,58.00
2018-04-10T21:49:05.833Z,58.40
2018-04-10T21:51:34.084Z,58.40
2018-04-10T21:54:03.104Z,58.50
2018-04-10T21:56:31.349Z,58.40
2018-04-10T21:59:00.413Z,58.70
2018-04-10T22:01:28.624Z,58.70
2018-04-10T22:03:57.644Z,58.70
2018-04-10T22:06:25.891Z,58.70
2018-04-10T22:08:54.916Z,58.50
2018-04-10T22:11:23.152Z,58.50
2018-04-10T22:13:51.396Z,58.60
2018-04-10T22:16:19.650Z,58.70
2018-04-10T22:18:47.895Z,58.70
2018-04-10T22:21:16.152Z,58.90
2018-04-10T22:23:44.449Z,59.10
2018-04-10T22:26:12.760Z,59.00
2018-04-10T22:28:41.016Z,59.30
2018-04-10T22:31:09.236Z,59.20
2018-04-10T22:33:37.461Z,59.10
2018-04-10T22:36:06.917Z,59.70
2018-04-10T22:38:35.125Z,59.40
2018-04-10T22:41:03.408Z,59.50
2018-04-10T22:43:32.391Z,59.60
2018-04-10T22:46:00.622Z,59.50
2018-04-10T22:48:28.911Z,59.60
2018-04-10T22:50:57.157Z,59.70
2018-04-10T22:53:26.209Z,59.70
2018-04-10T22:55:54.449Z,59.70
2018-04-10T22:58:22.701Z,59.90
2018-04-10T23:00:50.965Z,60.00
2018-04-10T23:03:19.206Z,60.10
2018-04-10T23:05:48.237Z,60.20
2018-04-10T23:08:16.484Z,60.00
2018-04-10T23:10:45.546Z,60.10
2018-04-10T23:13:13.830Z,60.00
2018-04-10T23:15:42.115Z,60.60
2018-04-10T23:18:10.364Z,59.90
2018-04-10T23:20:38.662Z,59.80
2018-04-10T23:23:06.928Z,59.90
2018-04-10T23:25:35.140Z,59.90
2018-04-10T23:28:03.395Z,60.00
2018-04-10T23:30:31.643Z,60.30
2018-04-10T23:32:59.908Z,60.70
2018-04-10T23:35:28.137Z,59.90
2018-04-10T23:37:56.395Z,59.90
2018-04-10T23:40:24.712Z,60.10
2018-04-10T23:42:52.936Z,60.20
2018-04-10T23:45:21.245Z,60.30
2018-04-10T23:47:49.845Z,60.30
2018-04-10T23:50:18.052Z,60.30
2018-04-10T23:52:46.308Z,60.40
2018-04-10T23:55:15.317Z,60.40
2018-04-10T23:57:43.595Z,60.40
